sensor_id;sensor_type;location;lat;lon;timestamp;temperature;humidity
27940;DHT22;15275;51.716;14.324;2022-08-21T00:02:17;22.10;88.40
27940;DHT22;15275;51.716;14.324;2022-08-21T00:04:45;22.10;88.40
27940;DHT22;15275;51.716;14.324;2022-08-21T00:07:11;22.20;88.40
27940;DHT22;15275;51.716;14.324;2022-08-21T00:09:37;22.20;88.40
27940;DHT22;15275;51.716;14.324;2022-08-21T00:12:04;22.20;88.30
27940;DHT22;15275;51.716;14.324;2022-08-21T00:14:30;22.20;88.30
27940;DHT22;15275;51.716;14.324;2022-08-21T00:16:57;22.20;88.30
27940;DHT22;15275;51.716;14.324;2022-08-21T00:19:23;22.20;88.30
27940;DHT22;15275;51.716;14.324;2022-08-21T00:21:51;22.20;88.30
27940;DHT22;15275;51.716;14.324;2022-08-21T00:24:19;22.20;88.20
27940;DHT22;15275;51.716;14.324;2022-08-21T00:26:45;22.20;88.10
27940;DHT22;15275;51.716;14.324;2022-08-21T00:29:13;22.20;88.10
27940;DHT22;15275;51.716;14.324;2022-08-21T00:31:39;22.20;88.10
27940;DHT22;15275;51.716;14.324;2022-08-21T00:34:07;22.20;88.10
27940;DHT22;15275;51.716;14.324;2022-08-21T00:36:33;22.20;88.20
27940;DHT22;15275;51.716;14.324;2022-08-21T00:39:00;22.20;88.20
27940;DHT22;15275;51.716;14.324;2022-08-21T00:41:27;22.20;88.20
27940;DHT22;15275;51.716;14.324;2022-08-21T00:43:54;22.20;88.20
27940;DHT22;15275;51.716;14.324;2022-08-21T00:46:20;22.20;88.20
27940;DHT22;15275;51.716;14.324;2022-08-21T00:48:46;22.20;88.20
27940;DHT22;15275;51.716;14.324;2022-08-21T00:51:20;22.20;88.20
27940;DHT22;15275;51.716;14.324;2022-08-21T00:53:56;22.30;88.00
27940;DHT22;15275;51.716;14.324;2022-08-21T00:56:24;22.20;88.10
27940;DHT22;15275;51.716;14.324;2022-08-21T00:58:52;22.20;88.10
27940;DHT22;15275;51.716;14.324;2022-08-21T01:01:20;22.20;88.10
27940;DHT22;15275;51.716;14.324;2022-08-21T01:03:46;22.20;88.10
27940;DHT22;15275;51.716;14.324;2022-08-21T01:06:13;22.20;88.10
27940;DHT22;15275;51.716;14.324;2022-08-21T01:08:39;22.20;88.10
27940;DHT22;15275;51.716;14.324;2022-08-21T01:11:05;22.30;88.10
27940;DHT22;15275;51.716;14.324;2022-08-21T01:13:35;22.30;88.00
27940;DHT22;15275;51.716;14.324;2022-08-21T01:16:04;22.30;88.00
27940;DHT22;15275;51.716;14.324;2022-08-21T01:18:30;22.30;87.90
27940;DHT22;15275;51.716;14.324;2022-08-21T01:23:41;22.30;87.80
27940;DHT22;15275;51.716;14.324;2022-08-21T01:26:09;22.30;88.00
27940;DHT22;15275;51.716;14.324;2022-08-21T01:28:44;22.30;88.00
27940;DHT22;15275;51.716;14.324;2022-08-21T01:31:15;22.30;87.80
27940;DHT22;15275;51.716;14.324;2022-08-21T01:33:43;22.30;88.00
27940;DHT22;15275;51.716;14.324;2022-08-21T01:36:09;22.20;87.90
27940;DHT22;15275;51.716;14.324;2022-08-21T01:38:35;22.20;88.00
27940;DHT22;15275;51.716;14.324;2022-08-21T01:41:01;22.20;88.00
27940;DHT22;15275;51.716;14.324;2022-08-21T01:43:27;22.20;88.00
27940;DHT22;15275;51.716;14.324;2022-08-21T01:45:53;22.20;88.00
27940;DHT22;15275;51.716;14.324;2022-08-21T01:48:18;22.20;88.00
27940;DHT22;15275;51.716;14.324;2022-08-21T01:50:44;22.20;88.00
27940;DHT22;15275;51.716;14.324;2022-08-21T01:53:10;22.20;88.00
27940;DHT22;15275;51.716;14.324;2022-08-21T01:55:36;22.20;88.00
27940;DHT22;15275;51.716;14.324;2022-08-21T01:58:02;22.20;88.00
27940;DHT22;15275;51.716;14.324;2022-08-21T02:00:28;22.20;88.00
27940;DHT22;15275;51.716;14.324;2022-08-21T02:02:54;22.20;88.00
27940;DHT22;15275;51.716;14.324;2022-08-21T02:05:21;22.20;88.10
27940;DHT22;15275;51.716;14.324;2022-08-21T02:07:50;22.20;88.10
27940;DHT22;15275;51.716;14.324;2022-08-21T02:10:21;22.20;88.10
27940;DHT22;15275;51.716;14.324;2022-08-21T02:12:50;22.20;88.20
27940;DHT22;15275;51.716;14.324;2022-08-21T02:15:16;22.20;88.30
27940;DHT22;15275;51.716;14.324;2022-08-21T02:17:50;22.20;88.30
27940;DHT22;15275;51.716;14.324;2022-08-21T02:20:41;22.20;88.20
27940;DHT22;15275;51.716;14.324;2022-08-21T02:23:10;22.20;87.90
27940;DHT22;15275;51.716;14.324;2022-08-21T02:25:37;22.20;88.20
27940;DHT22;15275;51.716;14.324;2022-08-21T02:28:07;22.20;88.20
27940;DHT22;15275;51.716;14.324;2022-08-21T02:30:39;22.20;88.20
27940;DHT22;15275;51.716;14.324;2022-08-21T02:33:08;22.20;88.20
27940;DHT22;15275;51.716;14.324;2022-08-21T02:35:36;22.20;88.10
27940;DHT22;15275;51.716;14.324;2022-08-21T02:38:05;22.10;88.10
27940;DHT22;15275;51.716;14.324;2022-08-21T02:40:36;22.10;88.10
27940;DHT22;15275;51.716;14.324;2022-08-21T02:43:04;22.10;88.10
27940;DHT22;15275;51.716;14.324;2022-08-21T02:45:32;22.10;88.10
27940;DHT22;15275;51.716;14.324;2022-08-21T02:48:02;22.10;88.10
27940;DHT22;15275;51.716;14.324;2022-08-21T02:50:36;22.00;88.10
27940;DHT22;15275;51.716;14.324;2022-08-21T02:53:08;22.00;88.10
27940;DHT22;15275;51.716;14.324;2022-08-21T02:55:36;22.00;88.10
27940;DHT22;15275;51.716;14.324;2022-08-21T02:58:05;21.90;88.10
27940;DHT22;15275;51.716;14.324;2022-08-21T03:00:33;21.90;88.10
27940;DHT22;15275;51.716;14.324;2022-08-21T03:03:00;21.90;88.10
27940;DHT22;15275;51.716;14.324;2022-08-21T03:05:28;21.80;88.10
27940;DHT22;15275;51.716;14.324;2022-08-21T03:07:56;21.80;88.30
27940;DHT22;15275;51.716;14.324;2022-08-21T03:10:24;21.80;88.30
27940;DHT22;15275;51.716;14.324;2022-08-21T03:12:50;21.80;88.40
27940;DHT22;15275;51.716;14.324;2022-08-21T03:15:19;21.70;88.50
27940;DHT22;15275;51.716;14.324;2022-08-21T03:17:47;21.70;88.60
27940;DHT22;15275;51.716;14.324;2022-08-21T03:20:15;21.70;88.60
27940;DHT22;15275;51.716;14.324;2022-08-21T03:22:43;21.70;88.60
27940;DHT22;15275;51.716;14.324;2022-08-21T03:25:09;21.70;88.70
27940;DHT22;15275;51.716;14.324;2022-08-21T03:27:36;21.70;88.70
27940;DHT22;15275;51.716;14.324;2022-08-21T03:30:06;21.70;88.60
27940;DHT22;15275;51.716;14.324;2022-08-21T03:32:33;21.70;88.60
27940;DHT22;15275;51.716;14.324;2022-08-21T03:34:59;21.70;88.30
27940;DHT22;15275;51.716;14.324;2022-08-21T03:37:26;21.70;88.10
27940;DHT22;15275;51.716;14.324;2022-08-21T03:39:52;21.70;88.00
27940;DHT22;15275;51.716;14.324;2022-08-21T03:42:18;21.60;87.90
27940;DHT22;15275;51.716;14.324;2022-08-21T03:44:44;21.60;88.00
27940;DHT22;15275;51.716;14.324;2022-08-21T03:47:10;21.60;88.00
27940;DHT22;15275;51.716;14.324;2022-08-21T03:49:36;21.60;87.90
27940;DHT22;15275;51.716;14.324;2022-08-21T03:52:02;21.60;87.80
27940;DHT22;15275;51.716;14.324;2022-08-21T03:54:29;21.60;87.80
27940;DHT22;15275;51.716;14.324;2022-08-21T03:56:55;21.60;87.90
27940;DHT22;15275;51.716;14.324;2022-08-21T03:59:21;21.60;87.90
27940;DHT22;15275;51.716;14.324;2022-08-21T04:01:58;21.60;87.80
27940;DHT22;15275;51.716;14.324;2022-08-21T04:04:27;21.60;87.50
27940;DHT22;15275;51.716;14.324;2022-08-21T04:06:54;21.60;87.60
27940;DHT22;15275;51.716;14.324;2022-08-21T04:09:21;21.50;87.70
27940;DHT22;15275;51.716;14.324;2022-08-21T04:11:47;21.60;87.70
27940;DHT22;15275;51.716;14.324;2022-08-21T04:14:15;21.50;87.60
27940;DHT22;15275;51.716;14.324;2022-08-21T04:16:42;21.50;87.60
27940;DHT22;15275;51.716;14.324;2022-08-21T04:19:09;21.50;87.70
27940;DHT22;15275;51.716;14.324;2022-08-21T04:21:36;21.50;87.70
27940;DHT22;15275;51.716;14.324;2022-08-21T04:24:04;21.50;87.80
27940;DHT22;15275;51.716;14.324;2022-08-21T04:26:30;21.50;87.80
27940;DHT22;15275;51.716;14.324;2022-08-21T04:28:57;21.50;87.80
27940;DHT22;15275;51.716;14.324;2022-08-21T04:31:24;21.50;87.80
27940;DHT22;15275;51.716;14.324;2022-08-21T04:33:51;21.50;87.80
27940;DHT22;15275;51.716;14.324;2022-08-21T04:36:17;21.50;87.80
27940;DHT22;15275;51.716;14.324;2022-08-21T04:38:43;21.50;87.90
27940;DHT22;15275;51.716;14.324;2022-08-21T04:41:09;21.50;87.80
27940;DHT22;15275;51.716;14.324;2022-08-21T04:43:35;21.50;87.80
27940;DHT22;15275;51.716;14.324;2022-08-21T04:46:01;21.50;87.80
27940;DHT22;15275;51.716;14.324;2022-08-21T04:48:27;21.50;87.80
27940;DHT22;15275;51.716;14.324;2022-08-21T04:51:02;21.50;87.90
27940;DHT22;15275;51.716;14.324;2022-08-21T04:53:46;21.50;87.80
27940;DHT22;15275;51.716;14.324;2022-08-21T04:56:34;21.60;87.80
27940;DHT22;15275;51.716;14.324;2022-08-21T04:59:07;21.60;87.70
27940;DHT22;15275;51.716;14.324;2022-08-21T05:01:42;21.60;87.90
27940;DHT22;15275;51.716;14.324;2022-08-21T05:04:12;21.60;88.00
27940;DHT22;15275;51.716;14.324;2022-08-21T05:06:41;21.60;88.00
27940;DHT22;15275;51.716;14.324;2022-08-21T05:09:09;21.60;88.00
27940;DHT22;15275;51.716;14.324;2022-08-21T05:11:38;21.60;88.00
27940;DHT22;15275;51.716;14.324;2022-08-21T05:14:05;21.60;88.00
27940;DHT22;15275;51.716;14.324;2022-08-21T05:16:31;21.60;88.10
27940;DHT22;15275;51.716;14.324;2022-08-21T05:18:57;21.60;88.10
27940;DHT22;15275;51.716;14.324;2022-08-21T05:21:23;21.60;88.10
27940;DHT22;15275;51.716;14.324;2022-08-21T05:23:49;21.60;88.10
27940;DHT22;15275;51.716;14.324;2022-08-21T05:26:15;21.60;88.10
27940;DHT22;15275;51.716;14.324;2022-08-21T05:28:41;21.60;88.20
27940;DHT22;15275;51.716;14.324;2022-08-21T05:31:07;21.60;88.30
27940;DHT22;15275;51.716;14.324;2022-08-21T05:33:33;21.60;88.30
27940;DHT22;15275;51.716;14.324;2022-08-21T05:35:59;21.70;88.30
27940;DHT22;15275;51.716;14.324;2022-08-21T05:38:25;21.70;88.30
27940;DHT22;15275;51.716;14.324;2022-08-21T05:40:53;21.70;88.30
27940;DHT22;15275;51.716;14.324;2022-08-21T05:43:19;21.70;88.30
27940;DHT22;15275;51.716;14.324;2022-08-21T05:45:45;21.70;88.40
27940;DHT22;15275;51.716;14.324;2022-08-21T05:48:18;21.70;88.40
27940;DHT22;15275;51.716;14.324;2022-08-21T05:50:46;21.80;88.40
27940;DHT22;15275;51.716;14.324;2022-08-21T05:53:15;21.80;88.50
27940;DHT22;15275;51.716;14.324;2022-08-21T05:55:43;21.80;88.60
27940;DHT22;15275;51.716;14.324;2022-08-21T05:58:09;21.80;88.70
27940;DHT22;15275;51.716;14.324;2022-08-21T06:00:35;21.90;88.80
27940;DHT22;15275;51.716;14.324;2022-08-21T06:03:00;21.90;88.80
27940;DHT22;15275;51.716;14.324;2022-08-21T06:05:26;21.90;88.80
27940;DHT22;15275;51.716;14.324;2022-08-21T06:07:52;22.00;88.70
27940;DHT22;15275;51.716;14.324;2022-08-21T06:10:18;22.00;88.60
27940;DHT22;15275;51.716;14.324;2022-08-21T06:12:44;22.00;88.60
27940;DHT22;15275;51.716;14.324;2022-08-21T06:15:10;22.10;88.60
27940;DHT22;15275;51.716;14.324;2022-08-21T06:17:36;22.10;88.70
27940;DHT22;15275;51.716;14.324;2022-08-21T06:20:03;22.10;88.70
27940;DHT22;15275;51.716;14.324;2022-08-21T06:22:30;22.20;88.60
27940;DHT22;15275;51.716;14.324;2022-08-21T06:24:56;22.20;88.50
27940;DHT22;15275;51.716;14.324;2022-08-21T06:27:22;22.20;88.50
27940;DHT22;15275;51.716;14.324;2022-08-21T06:29:47;22.30;88.50
27940;DHT22;15275;51.716;14.324;2022-08-21T06:32:13;22.30;88.40
27940;DHT22;15275;51.716;14.324;2022-08-21T06:34:41;22.30;88.30
27940;DHT22;15275;51.716;14.324;2022-08-21T06:37:07;22.30;88.20
27940;DHT22;15275;51.716;14.324;2022-08-21T06:39:33;22.30;88.10
27940;DHT22;15275;51.716;14.324;2022-08-21T06:42:00;22.40;87.80
27940;DHT22;15275;51.716;14.324;2022-08-21T06:44:26;22.40;87.70
27940;DHT22;15275;51.716;14.324;2022-08-21T06:46:51;22.40;87.60
27940;DHT22;15275;51.716;14.324;2022-08-21T06:49:17;22.40;87.60
27940;DHT22;15275;51.716;14.324;2022-08-21T06:51:43;22.40;87.60
27940;DHT22;15275;51.716;14.324;2022-08-21T06:54:09;22.40;87.50
27940;DHT22;15275;51.716;14.324;2022-08-21T06:56:36;22.40;87.50
27940;DHT22;15275;51.716;14.324;2022-08-21T06:59:04;22.50;87.50
27940;DHT22;15275;51.716;14.324;2022-08-21T07:01:31;22.50;87.20
27940;DHT22;15275;51.716;14.324;2022-08-21T07:03:57;22.50;87.30
27940;DHT22;15275;51.716;14.324;2022-08-21T07:06:23;22.50;87.40
27940;DHT22;15275;51.716;14.324;2022-08-21T07:08:50;22.50;87.20
27940;DHT22;15275;51.716;14.324;2022-08-21T07:11:20;22.50;87.10
27940;DHT22;15275;51.716;14.324;2022-08-21T07:13:49;22.50;86.80
27940;DHT22;15275;51.716;14.324;2022-08-21T07:16:19;22.50;86.70
27940;DHT22;15275;51.716;14.324;2022-08-21T07:18:46;22.50;86.50
27940;DHT22;15275;51.716;14.324;2022-08-21T07:21:12;22.50;86.60
27940;DHT22;15275;51.716;14.324;2022-08-21T07:23:43;22.40;86.80
27940;DHT22;15275;51.716;14.324;2022-08-21T07:26:12;22.50;86.60
27940;DHT22;15275;51.716;14.324;2022-08-21T07:28:39;22.50;86.60
27940;DHT22;15275;51.716;14.324;2022-08-21T07:31:05;22.40;86.70
27940;DHT22;15275;51.716;14.324;2022-08-21T07:33:33;22.50;86.40
27940;DHT22;15275;51.716;14.324;2022-08-21T07:36:00;22.40;86.10
27940;DHT22;15275;51.716;14.324;2022-08-21T07:38:26;22.40;86.30
27940;DHT22;15275;51.716;14.324;2022-08-21T07:40:55;22.40;86.40
27940;DHT22;15275;51.716;14.324;2022-08-21T07:43:28;22.40;86.40
27940;DHT22;15275;51.716;14.324;2022-08-21T07:45:55;22.40;86.50
27940;DHT22;15275;51.716;14.324;2022-08-21T07:48:22;22.40;86.60
27940;DHT22;15275;51.716;14.324;2022-08-21T07:50:48;22.40;86.60
27940;DHT22;15275;51.716;14.324;2022-08-21T07:53:15;22.40;86.60
27940;DHT22;15275;51.716;14.324;2022-08-21T07:55:41;22.50;86.40
27940;DHT22;15275;51.716;14.324;2022-08-21T07:58:07;22.50;86.30
27940;DHT22;15275;51.716;14.324;2022-08-21T08:00:34;22.50;86.30
27940;DHT22;15275;51.716;14.324;2022-08-21T08:03:00;22.50;86.30
27940;DHT22;15275;51.716;14.324;2022-08-21T08:05:28;22.50;86.50
27940;DHT22;15275;51.716;14.324;2022-08-21T08:07:55;22.60;86.30
27940;DHT22;15275;51.716;14.324;2022-08-21T08:10:22;22.60;86.30
27940;DHT22;15275;51.716;14.324;2022-08-21T08:12:51;22.60;86.40
27940;DHT22;15275;51.716;14.324;2022-08-21T08:15:21;22.70;86.20
27940;DHT22;15275;51.716;14.324;2022-08-21T08:17:49;22.70;85.70
27940;DHT22;15275;51.716;14.324;2022-08-21T08:20:16;22.80;86.00
27940;DHT22;15275;51.716;14.324;2022-08-21T08:22:44;22.80;85.70
27940;DHT22;15275;51.716;14.324;2022-08-21T08:25:12;22.90;85.60
27940;DHT22;15275;51.716;14.324;2022-08-21T08:27:38;22.90;85.60
27940;DHT22;15275;51.716;14.324;2022-08-21T08:30:07;22.90;85.30
27940;DHT22;15275;51.716;14.324;2022-08-21T08:32:35;22.90;85.20
27940;DHT22;15275;51.716;14.324;2022-08-21T08:35:01;23.00;85.20
27940;DHT22;15275;51.716;14.324;2022-08-21T08:37:28;23.00;85.00
27940;DHT22;15275;51.716;14.324;2022-08-21T08:39:54;23.00;84.80
27940;DHT22;15275;51.716;14.324;2022-08-21T08:44:46;23.10;84.80
27940;DHT22;15275;51.716;14.324;2022-08-21T08:47:16;23.10;84.60
27940;DHT22;15275;51.716;14.324;2022-08-21T08:49:53;23.10;84.60
27940;DHT22;15275;51.716;14.324;2022-08-21T08:52:49;23.20;83.70
27940;DHT22;15275;51.716;14.324;2022-08-21T08:58:31;23.30;83.80
27940;DHT22;15275;51.716;14.324;2022-08-21T09:01:06;23.30;83.50
27940;DHT22;15275;51.716;14.324;2022-08-21T09:03:39;23.30;83.80
27940;DHT22;15275;51.716;14.324;2022-08-21T09:08:54;23.30;84.20
27940;DHT22;15275;51.716;14.324;2022-08-21T09:14:08;23.40;83.80
27940;DHT22;15275;51.716;14.324;2022-08-21T09:17:10;23.50;84.00
27940;DHT22;15275;51.716;14.324;2022-08-21T09:27:46;23.60;83.50
27940;DHT22;15275;51.716;14.324;2022-08-21T09:30:13;23.70;83.50
27940;DHT22;15275;51.716;14.324;2022-08-21T09:32:39;23.70;83.30
27940;DHT22;15275;51.716;14.324;2022-08-21T09:37:34;23.80;82.90
27940;DHT22;15275;51.716;14.324;2022-08-21T09:40:43;23.80;83.00
27940;DHT22;15275;51.716;14.324;2022-08-21T09:45:38;23.90;83.10
27940;DHT22;15275;51.716;14.324;2022-08-21T09:48:21;23.90;82.80
27940;DHT22;15275;51.716;14.324;2022-08-21T09:50:49;24.00;80.80
27940;DHT22;15275;51.716;14.324;2022-08-21T09:53:29;24.10;83.00
27940;DHT22;15275;51.716;14.324;2022-08-21T09:56:04;24.20;80.10
27940;DHT22;15275;51.716;14.324;2022-08-21T09:58:58;24.20;81.00
27940;DHT22;15275;51.716;14.324;2022-08-21T10:01:25;24.30;82.00
27940;DHT22;15275;51.716;14.324;2022-08-21T10:04:11;24.30;81.60
27940;DHT22;15275;51.716;14.324;2022-08-21T10:06:38;24.40;79.80
27940;DHT22;15275;51.716;14.324;2022-08-21T10:09:11;24.40;81.60
27940;DHT22;15275;51.716;14.324;2022-08-21T10:11:40;24.50;81.00
27940;DHT22;15275;51.716;14.324;2022-08-21T10:14:57;24.60;81.20
27940;DHT22;15275;51.716;14.324;2022-08-21T10:17:44;24.70;79.30
27940;DHT22;15275;51.716;14.324;2022-08-21T10:30:02;24.90;78.70
27940;DHT22;15275;51.716;14.324;2022-08-21T10:38:38;24.80;78.20
27940;DHT22;15275;51.716;14.324;2022-08-21T10:47:13;24.90;77.40
27940;DHT22;15275;51.716;14.324;2022-08-21T10:50:17;24.90;78.80
27940;DHT22;15275;51.716;14.324;2022-08-21T10:55:56;25.00;78.70
27940;DHT22;15275;51.716;14.324;2022-08-21T11:01:33;25.10;78.90
27940;DHT22;15275;51.716;14.324;2022-08-21T11:06:47;25.20;75.80
27940;DHT22;15275;51.716;14.324;2022-08-21T11:09:24;25.20;78.20
27940;DHT22;15275;51.716;14.324;2022-08-21T11:11:59;25.20;78.60
27940;DHT22;15275;51.716;14.324;2022-08-21T11:14:58;25.20;79.20
27940;DHT22;15275;51.716;14.324;2022-08-21T11:17:34;25.30;77.10
27940;DHT22;15275;51.716;14.324;2022-08-21T11:20:10;25.30;77.90
27940;DHT22;15275;51.716;14.324;2022-08-21T11:22:56;25.30;77.20
27940;DHT22;15275;51.716;14.324;2022-08-21T11:25:44;25.30;76.60
27940;DHT22;15275;51.716;14.324;2022-08-21T11:28:29;25.30;76.90
27940;DHT22;15275;51.716;14.324;2022-08-21T11:34:09;25.30;76.90
27940;DHT22;15275;51.716;14.324;2022-08-21T11:49:10;25.30;76.20
27940;DHT22;15275;51.716;14.324;2022-08-21T11:51:59;25.30;77.50
27940;DHT22;15275;51.716;14.324;2022-08-21T11:54:36;25.30;78.00
27940;DHT22;15275;51.716;14.324;2022-08-21T12:02:36;25.40;77.50
27940;DHT22;15275;51.716;14.324;2022-08-21T12:05:10;25.50;77.70
27940;DHT22;15275;51.716;14.324;2022-08-21T12:07:47;25.60;77.30
27940;DHT22;15275;51.716;14.324;2022-08-21T12:10:18;25.60;77.70
27940;DHT22;15275;51.716;14.324;2022-08-21T12:12:47;25.70;75.90
27940;DHT22;15275;51.716;14.324;2022-08-21T12:15:17;25.70;76.60
27940;DHT22;15275;51.716;14.324;2022-08-21T12:20:45;25.80;74.40
27940;DHT22;15275;51.716;14.324;2022-08-21T12:26:33;25.80;74.10
27940;DHT22;15275;51.716;14.324;2022-08-21T12:29:36;25.80;75.90
27940;DHT22;15275;51.716;14.324;2022-08-21T12:32:19;25.80;75.10
27940;DHT22;15275;51.716;14.324;2022-08-21T12:34:50;25.90;76.00
27940;DHT22;15275;51.716;14.324;2022-08-21T12:40:31;26.00;73.40
27940;DHT22;15275;51.716;14.324;2022-08-21T12:43:03;26.00;74.20
27940;DHT22;15275;51.716;14.324;2022-08-21T12:45:42;26.00;75.20
27940;DHT22;15275;51.716;14.324;2022-08-21T12:48:18;26.00;72.30
27940;DHT22;15275;51.716;14.324;2022-08-21T12:50:52;26.00;73.60
27940;DHT22;15275;51.716;14.324;2022-08-21T12:56:17;26.00;71.90
27940;DHT22;15275;51.716;14.324;2022-08-21T12:58:55;26.10;74.20
27940;DHT22;15275;51.716;14.324;2022-08-21T13:01:27;26.10;72.90
27940;DHT22;15275;51.716;14.324;2022-08-21T13:03:58;26.20;73.00
27940;DHT22;15275;51.716;14.324;2022-08-21T13:06:31;26.20;73.30
27940;DHT22;15275;51.716;14.324;2022-08-21T13:09:06;26.30;73.80
27940;DHT22;15275;51.716;14.324;2022-08-21T13:11:37;26.30;73.10
27940;DHT22;15275;51.716;14.324;2022-08-21T13:14:04;26.40;73.10
27940;DHT22;15275;51.716;14.324;2022-08-21T13:16:31;26.40;72.90
27940;DHT22;15275;51.716;14.324;2022-08-21T13:19:00;26.40;72.80
27940;DHT22;15275;51.716;14.324;2022-08-21T13:21:33;26.40;72.30
27940;DHT22;15275;51.716;14.324;2022-08-21T13:26:43;26.40;69.90
27940;DHT22;15275;51.716;14.324;2022-08-21T13:29:11;26.40;72.50
27940;DHT22;15275;51.716;14.324;2022-08-21T13:31:42;26.40;72.00
27940;DHT22;15275;51.716;14.324;2022-08-21T13:34:19;26.50;71.90
27940;DHT22;15275;51.716;14.324;2022-08-21T13:36:47;26.50;72.20
27940;DHT22;15275;51.716;14.324;2022-08-21T13:39:18;26.50;71.90
27940;DHT22;15275;51.716;14.324;2022-08-21T13:41:47;26.50;71.40
27940;DHT22;15275;51.716;14.324;2022-08-21T13:44:31;26.50;71.60
27940;DHT22;15275;51.716;14.324;2022-08-21T13:47:03;26.50;69.80
27940;DHT22;15275;51.716;14.324;2022-08-21T13:49:38;26.50;71.60
27940;DHT22;15275;51.716;14.324;2022-08-21T13:52:24;26.50;70.70
27940;DHT22;15275;51.716;14.324;2022-08-21T13:55:13;26.50;69.80
27940;DHT22;15275;51.716;14.324;2022-08-21T13:57:41;26.50;69.20
27940;DHT22;15275;51.716;14.324;2022-08-21T14:02:46;26.50;70.00
27940;DHT22;15275;51.716;14.324;2022-08-21T14:05:27;26.50;70.20
27940;DHT22;15275;51.716;14.324;2022-08-21T14:08:34;26.50;69.40
27940;DHT22;15275;51.716;14.324;2022-08-21T14:11:04;26.50;69.30
27940;DHT22;15275;51.716;14.324;2022-08-21T14:13:43;26.40;70.30
27940;DHT22;15275;51.716;14.324;2022-08-21T14:16:26;26.40;69.40
27940;DHT22;15275;51.716;14.324;2022-08-21T14:21:48;26.50;68.50
27940;DHT22;15275;51.716;14.324;2022-08-21T14:24:24;26.50;70.80
27940;DHT22;15275;51.716;14.324;2022-08-21T14:27:04;26.50;70.60
27940;DHT22;15275;51.716;14.324;2022-08-21T14:29:35;26.50;70.80
27940;DHT22;15275;51.716;14.324;2022-08-21T14:32:17;26.60;70.70
27940;DHT22;15275;51.716;14.324;2022-08-21T14:34:46;26.60;70.50
27940;DHT22;15275;51.716;14.324;2022-08-21T14:37:11;26.70;70.90
27940;DHT22;15275;51.716;14.324;2022-08-21T14:39:38;26.80;70.10
27940;DHT22;15275;51.716;14.324;2022-08-21T14:42:04;26.80;69.50
27940;DHT22;15275;51.716;14.324;2022-08-21T14:44:30;26.80;69.40
27940;DHT22;15275;51.716;14.324;2022-08-21T14:46:58;26.80;69.60
27940;DHT22;15275;51.716;14.324;2022-08-21T14:49:26;26.90;69.90
27940;DHT22;15275;51.716;14.324;2022-08-21T14:51:58;26.90;69.60
27940;DHT22;15275;51.716;14.324;2022-08-21T14:54:28;27.00;68.50
27940;DHT22;15275;51.716;14.324;2022-08-21T14:56:55;27.10;68.50
27940;DHT22;15275;51.716;14.324;2022-08-21T14:59:22;27.10;68.70
27940;DHT22;15275;51.716;14.324;2022-08-21T15:01:48;27.00;68.70
27940;DHT22;15275;51.716;14.324;2022-08-21T15:04:15;27.00;68.70
27940;DHT22;15275;51.716;14.324;2022-08-21T15:06:41;27.00;68.70
27940;DHT22;15275;51.716;14.324;2022-08-21T15:09:07;27.10;68.90
27940;DHT22;15275;51.716;14.324;2022-08-21T15:11:33;27.10;68.70
27940;DHT22;15275;51.716;14.324;2022-08-21T15:14:02;27.10;68.40
27940;DHT22;15275;51.716;14.324;2022-08-21T15:16:30;27.20;68.20
27940;DHT22;15275;51.716;14.324;2022-08-21T15:18:59;27.20;68.00
27940;DHT22;15275;51.716;14.324;2022-08-21T15:21:25;27.20;68.00
27940;DHT22;15275;51.716;14.324;2022-08-21T15:23:50;27.20;67.50
27940;DHT22;15275;51.716;14.324;2022-08-21T15:26:16;27.20;68.00
27940;DHT22;15275;51.716;14.324;2022-08-21T15:28:42;27.20;68.10
27940;DHT22;15275;51.716;14.324;2022-08-21T15:31:08;27.30;67.60
27940;DHT22;15275;51.716;14.324;2022-08-21T15:33:34;27.30;67.40
27940;DHT22;15275;51.716;14.324;2022-08-21T15:36:00;27.30;67.80
27940;DHT22;15275;51.716;14.324;2022-08-21T15:38:26;27.30;67.40
27940;DHT22;15275;51.716;14.324;2022-08-21T15:40:52;27.30;67.30
27940;DHT22;15275;51.716;14.324;2022-08-21T15:43:30;27.30;67.30
27940;DHT22;15275;51.716;14.324;2022-08-21T15:46:01;27.30;64.90
27940;DHT22;15275;51.716;14.324;2022-08-21T15:48:28;27.30;67.00
27940;DHT22;15275;51.716;14.324;2022-08-21T15:50:54;27.30;66.90
27940;DHT22;15275;51.716;14.324;2022-08-21T15:53:20;27.30;67.20
27940;DHT22;15275;51.716;14.324;2022-08-21T15:55:46;27.30;67.30
27940;DHT22;15275;51.716;14.324;2022-08-21T15:58:15;27.30;67.10
27940;DHT22;15275;51.716;14.324;2022-08-21T16:00:43;27.30;66.10
27940;DHT22;15275;51.716;14.324;2022-08-21T16:03:11;27.30;66.70
27940;DHT22;15275;51.716;14.324;2022-08-21T16:05:41;27.30;66.80
27940;DHT22;15275;51.716;14.324;2022-08-21T16:08:07;27.30;66.90
27940;DHT22;15275;51.716;14.324;2022-08-21T16:10:36;27.20;66.80
27940;DHT22;15275;51.716;14.324;2022-08-21T16:13:04;27.30;66.90
27940;DHT22;15275;51.716;14.324;2022-08-21T16:15:33;27.20;66.20
27940;DHT22;15275;51.716;14.324;2022-08-21T16:17:59;27.20;66.20
27940;DHT22;15275;51.716;14.324;2022-08-21T16:20:28;27.20;65.70
27940;DHT22;15275;51.716;14.324;2022-08-21T16:22:55;27.20;65.10
27940;DHT22;15275;51.716;14.324;2022-08-21T16:25:23;27.10;66.40
27940;DHT22;15275;51.716;14.324;2022-08-21T16:27:53;27.10;66.50
27940;DHT22;15275;51.716;14.324;2022-08-21T16:30:22;27.10;65.50
27940;DHT22;15275;51.716;14.324;2022-08-21T16:32:49;27.10;66.30
27940;DHT22;15275;51.716;14.324;2022-08-21T16:35:18;27.10;66.20
27940;DHT22;15275;51.716;14.324;2022-08-21T16:37:45;27.10;66.20
27940;DHT22;15275;51.716;14.324;2022-08-21T16:40:11;27.10;66.20
27940;DHT22;15275;51.716;14.324;2022-08-21T16:42:38;27.10;66.30
27940;DHT22;15275;51.716;14.324;2022-08-21T16:45:11;27.20;66.40
27940;DHT22;15275;51.716;14.324;2022-08-21T16:47:39;27.20;65.40
27940;DHT22;15275;51.716;14.324;2022-08-21T16:50:06;27.30;66.10
27940;DHT22;15275;51.716;14.324;2022-08-21T16:52:33;27.30;65.50
27940;DHT22;15275;51.716;14.324;2022-08-21T16:54:59;27.30;65.80
27940;DHT22;15275;51.716;14.324;2022-08-21T16:57:25;27.30;65.30
27940;DHT22;15275;51.716;14.324;2022-08-21T16:59:52;27.30;65.40
27940;DHT22;15275;51.716;14.324;2022-08-21T17:02:32;27.30;65.10
27940;DHT22;15275;51.716;14.324;2022-08-21T17:05:03;27.30;63.00
27940;DHT22;15275;51.716;14.324;2022-08-21T17:07:31;27.30;65.80
27940;DHT22;15275;51.716;14.324;2022-08-21T17:09:57;27.30;66.30
27940;DHT22;15275;51.716;14.324;2022-08-21T17:12:23;27.30;65.90